Time;durP1;ratioP1;P1;durP2;ratioP2;P2;SDS_P1;SDS_P2;PMS_P1;PMS_P2;Temp;Humidity;BMP_temperature;BMP_pressure;BME280_temperature;BME280_humidity;BME280_pressure;Samples;Min_cycle;Max_cycle;Signal;HPM_P1;HPM_P2
2022/01/21 00:00:09;;;;;;;70.10;24.02;;;-3.20;99.90;;;;;;5074838;28;20060;-79
2022/01/21 00:02:34;;;;;;;41.17;14.98;;;-3.20;99.90;;;;;;5074921;28;20118;-79
2022/01/21 00:05:00;;;;;;;51.88;17.75;;;-3.20;99.90;;;;;;5056061;28;20541;-79
2022/01/21 00:07:25;;;;;;;60.17;20.98;;;-3.20;99.90;;;;;;5056849;28;20090;-79
2022/01/21 00:09:51;;;;;;;26.38;9.32;;;-3.20;99.90;;;;;;5074638;28;20032;-79
2022/01/21 00:12:16;;;;;;;35.42;13.85;;;-3.20;99.90;;;;;;5067359;28;20033;-79
2022/01/21 00:14:43;;;;;;;19.25;8.10;;;-3.30;99.90;;;;;;5036898;28;20375;-79
2022/01/21 00:17:09;;;;;;;113.07;38.10;;;-3.30;99.90;;;;;;5036852;28;20064;-79
2022/01/21 00:19:39;;;;;;;69.70;24.20;;;-3.40;99.90;;;;;;5036485;28;20065;-80
2022/01/21 00:30:37;;;;;;;11.20;7.00;;;-3.40;99.90;;;;;;4972146;28;20045;-79
2022/01/21 00:33:02;;;;;;;12.98;6.35;;;-3.40;99.90;;;;;;4973118;28;20034;-79
2022/01/21 00:35:28;;;;;;;20.38;10.45;;;-3.40;99.90;;;;;;4985163;28;20394;-79
2022/01/21 00:37:53;;;;;;;9.80;4.45;;;-3.40;99.90;;;;;;5035805;28;20120;-79
2022/01/21 00:40:22;;;;;;;78.65;31.60;;;-3.40;99.90;;;;;;5054215;28;20036;-79
2022/01/21 00:42:55;;;;;;;53.75;19.98;;;-3.40;99.90;;;;;;5054032;28;20116;-79
2022/01/21 00:45:21;;;;;;;18.15;7.60;;;-3.40;99.90;;;;;;5036755;28;20025;-79
2022/01/21 00:47:48;;;;;;;26.70;9.77;;;-3.40;99.90;;;;;;5035907;28;20033;-79
2022/01/21 00:50:15;;;;;;;17.45;8.57;;;-3.30;99.90;;;;;;5036123;28;20509;-79
2022/01/21 00:52:41;;;;;;;12.85;6.13;;;-3.40;99.90;;;;;;5054151;28;20025;-79
2022/01/21 00:55:08;;;;;;;23.70;10.43;;;-3.40;99.90;;;;;;5053956;28;20036;-79
2022/01/21 00:57:34;;;;;;;23.95;9.15;;;-3.40;99.90;;;;;;5053888;28;20397;-79
2022/01/21 01:00:00;;;;;;;22.17;9.35;;;-3.40;99.90;;;;;;5053663;28;20116;-79
2022/01/21 01:02:25;;;;;;;16.55;7.28;;;-3.40;99.90;;;;;;5054470;28;20041;-79
2022/01/21 01:04:51;;;;;;;10.35;5.80;;;-3.40;99.90;;;;;;5035888;28;20513;-79
2022/01/21 01:07:17;;;;;;;24.30;9.88;;;-3.40;99.90;;;;;;5035804;28;20032;-79
2022/01/21 01:09:43;;;;;;;11.77;5.45;;;-3.40;99.90;;;;;;5035626;28;20033;-79
2022/01/21 01:12:23;;;;;;;23.33;8.50;;;-3.30;99.90;;;;;;5053837;28;20492;-79
2022/01/21 01:20:17;;;;;;;12.23;4.28;;;-3.40;99.90;;;;;;5051260;28;20401;-79
2022/01/21 01:27:54;;;;;;;10.57;5.10;;;-3.40;99.10;;;;;;5053310;28;20039;-78
2022/01/21 01:30:22;;;;;;;23.27;11.13;;;-3.50;99.50;;;;;;5053326;28;20037;-79
2022/01/21 01:32:49;;;;;;;21.23;8.43;;;-3.50;97.50;;;;;;5053017;28;20387;-79
2022/01/21 01:35:19;;;;;;;4.68;3.40;;;-3.50;98.00;;;;;;5053242;28;20037;-78
2022/01/21 01:40:39;;;;;;;3.83;2.88;;;-3.40;98.40;;;;;;5053079;28;20491;-78
2022/01/21 01:50:52;;;;;;;11.73;5.80;;;-3.50;98.40;;;;;;5032904;28;20076;-79
2022/01/21 01:53:24;;;;;;;8.73;5.20;;;-3.50;98.50;;;;;;5031878;28;20021;-79
2022/01/21 01:55:50;;;;;;;30.00;14.85;;;-3.50;99.40;;;;;;5032745;28;20041;-79
2022/01/21 01:58:15;;;;;;;13.00;5.93;;;-3.50;99.60;;;;;;5032470;28;20598;-80
2022/01/21 02:00:42;;;;;;;18.15;7.90;;;-3.50;99.30;;;;;;5042069;28;20048;-79
2022/01/21 02:03:10;;;;;;;21.92;8.15;;;-3.50;99.20;;;;;;5034619;28;20087;-79
2022/01/21 02:05:37;;;;;;;16.63;7.10;;;-3.50;99.20;;;;;;5035052;28;20029;-79
2022/01/21 02:08:04;;;;;;;10.02;4.28;;;-3.60;98.30;;;;;;5051069;28;20500;-79
2022/01/21 02:10:30;;;;;;;5.40;3.45;;;-3.60;97.50;;;;;;5051147;28;20397;-79
2022/01/21 02:13:03;;;;;;;10.38;4.63;;;-3.70;96.70;;;;;;5052412;28;20033;-79
2022/01/21 02:15:29;;;;;;;5.22;3.95;;;-3.70;96.60;;;;;;5032511;28;20029;-79
2022/01/21 02:23:26;;;;;;;10.05;4.35;;;-3.90;95.70;;;;;;5052446;28;20477;-79
2022/01/21 02:25:51;;;;;;;4.28;3.50;;;-3.90;95.40;;;;;;5034601;28;20052;-79
2022/01/21 02:28:18;;;;;;;8.43;4.65;;;-3.90;95.70;;;;;;5051448;28;20521;-79
2022/01/21 02:30:57;;;;;;;10.70;3.63;;;-4.00;95.80;;;;;;5034392;28;20029;-79
2022/01/21 02:33:24;;;;;;;6.35;4.25;;;-4.00;94.70;;;;;;5052390;28;20075;-79
2022/01/21 02:35:50;;;;;;;5.32;4.38;;;-4.10;94.80;;;;;;5034385;28;20549;-79
2022/01/21 02:38:16;;;;;;;5.70;3.85;;;-4.10;95.00;;;;;;5051858;28;20565;-79
2022/01/21 02:40:43;;;;;;;5.10;3.70;;;-4.20;93.70;;;;;;5051080;28;20037;-78
2022/01/21 02:43:08;;;;;;;12.55;8.57;;;-4.20;91.80;;;;;;5033390;28;20039;-79
2022/01/21 02:45:36;;;;;;;10.20;5.53;;;-4.30;92.30;;;;;;5033978;28;20560;-79
2022/01/21 02:48:02;;;;;;;10.32;5.45;;;-4.30;92.70;;;;;;5051706;28;20030;-79
2022/01/21 02:50:28;;;;;;;6.60;4.15;;;-4.40;93.10;;;;;;5052077;28;20044;-79
2022/01/21 02:53:09;;;;;;;6.75;3.35;;;-4.40;92.70;;;;;;5034075;28;20036;-78
2022/01/21 02:55:35;;;;;;;4.43;3.80;;;-4.40;93.40;;;;;;5052002;28;20040;-79
2022/01/21 02:58:01;;;;;;;5.13;3.30;;;-4.50;94.10;;;;;;5033767;28;20033;-78
2022/01/21 03:00:27;;;;;;;7.10;4.70;;;-4.50;95.00;;;;;;5051984;28;20035;-78
2022/01/21 03:02:53;;;;;;;7.70;5.38;;;-4.60;95.00;;;;;;5033994;28;20056;-78
2022/01/21 03:05:19;;;;;;;22.48;7.55;;;-4.60;95.80;;;;;;5034290;28;20025;-79
2022/01/21 03:07:45;;;;;;;12.02;5.63;;;-4.70;96.00;;;;;;5033731;28;20045;-79
2022/01/21 03:10:12;;;;;;;11.57;6.80;;;-4.70;96.00;;;;;;5034146;28;20511;-79
2022/01/21 03:12:38;;;;;;;8.63;4.25;;;-4.80;95.70;;;;;;5033964;28;20040;-78
2022/01/21 03:15:04;;;;;;;4.05;2.72;;;-4.80;96.30;;;;;;5055007;28;20036;-78
2022/01/21 03:17:30;;;;;;;4.47;3.60;;;-4.90;96.20;;;;;;5060963;28;20037;-79
2022/01/21 03:19:56;;;;;;;7.28;3.08;;;-4.90;97.00;;;;;;5032725;28;20029;-79
2022/01/21 03:22:22;;;;;;;5.25;3.38;;;-4.90;97.60;;;;;;5033796;28;20482;-79
2022/01/21 03:24:47;;;;;;;7.57;3.28;;;-4.90;98.20;;;;;;5033899;28;20021;-79
2022/01/21 03:27:13;;;;;;;9.98;4.40;;;-5.00;98.30;;;;;;5051166;28;20032;-79
2022/01/21 03:29:39;;;;;;;4.47;2.90;;;-5.00;99.10;;;;;;5071684;28;20029;-79
2022/01/21 03:32:05;;;;;;;5.15;3.90;;;-5.00;99.90;;;;;;5053850;28;20421;-79
2022/01/21 03:34:30;;;;;;;5.88;3.20;;;-5.10;99.90;;;;;;5053874;28;20112;-79
2022/01/21 03:36:56;;;;;;;4.75;2.92;;;-5.10;99.90;;;;;;5033804;28;20075;-78
2022/01/21 03:39:22;;;;;;;3.17;2.90;;;-5.20;99.90;;;;;;5033826;28;20064;-78
2022/01/21 03:41:47;;;;;;;5.05;3.10;;;-5.10;99.90;;;;;;5055879;28;20044;-79
2022/01/21 03:44:13;;;;;;;5.45;3.38;;;-5.10;99.90;;;;;;5075443;28;20357;-78
2022/01/21 03:46:38;;;;;;;7.97;4.30;;;-5.20;99.90;;;;;;5057307;28;20123;-78
2022/01/21 03:49:07;;;;;;;8.07;2.72;;;-5.20;99.90;;;;;;5074865;28;20036;-78
2022/01/21 03:51:32;;;;;;;5.45;2.75;;;-5.20;99.90;;;;;;5057541;28;20481;-78
2022/01/21 03:53:58;;;;;;;4.95;2.35;;;-5.20;99.90;;;;;;5075298;28;20036;-78
2022/01/21 03:56:23;;;;;;;5.50;3.65;;;-5.20;99.90;;;;;;5075160;28;20067;-78
2022/01/21 03:58:49;;;;;;;2.80;2.55;;;-5.20;99.90;;;;;;5073942;28;20627;-78
2022/01/21 04:01:15;;;;;;;3.80;3.50;;;-5.20;99.90;;;;;;5051763;28;20036;-78
2022/01/21 04:03:40;;;;;;;6.50;2.83;;;-5.10;99.90;;;;;;5056829;28;20048;-78
2022/01/21 04:06:06;;;;;;;4.28;2.90;;;-5.10;99.90;;;;;;5075044;28;20039;-78
2022/01/21 04:08:32;;;;;;;4.45;2.75;;;-5.10;99.90;;;;;;5074774;28;20066;-79
2022/01/21 04:10:58;;;;;;;3.97;2.40;;;-5.10;99.90;;;;;;5074842;28;20541;-79
2022/01/21 04:13:25;;;;;;;2.60;2.33;;;-5.10;99.90;;;;;;5073659;28;20033;-78
2022/01/21 04:15:53;;;;;;;3.85;2.53;;;-5.10;99.90;;;;;;5056721;28;20117;-79
2022/01/21 04:18:19;;;;;;;3.47;2.60;;;-5.10;99.90;;;;;;5056270;28;20028;-78
2022/01/21 04:20:46;;;;;;;3.20;2.47;;;-5.20;99.90;;;;;;5056633;28;20120;-79
2022/01/21 04:23:12;;;;;;;8.35;2.65;;;-5.20;99.90;;;;;;5070850;28;20091;-79
2022/01/21 04:25:39;;;;;;;4.40;3.35;;;-5.20;99.90;;;;;;5074745;28;20033;-79
2022/01/21 04:28:05;;;;;;;6.70;2.50;;;-5.20;99.90;;;;;;5056028;28;20033;-78
2022/01/21 04:30:32;;;;;;;3.00;2.22;;;-5.20;99.90;;;;;;5054020;28;20029;-79
2022/01/21 04:32:58;;;;;;;7.00;2.58;;;-5.10;99.90;;;;;;5035732;28;20029;-79
2022/01/21 04:35:23;;;;;;;7.25;2.88;;;-5.10;99.90;;;;;;5035917;28;20044;-78
2022/01/21 04:37:55;;;;;;;5.13;2.65;;;-5.00;99.90;;;;;;5064455;28;20033;-79
2022/01/21 04:40:27;;;;;;;5.30;3.03;;;-5.00;99.90;;;;;;5056369;28;20036;-79
2022/01/21 04:48:21;;;;;;;8.07;4.07;;;-4.90;99.90;;;;;;5057965;28;20399;-79
2022/01/21 04:53:23;;;;;;;10.93;3.28;;;-4.90;99.90;;;;;;5074371;28;20032;-78
2022/01/21 04:55:49;;;;;;;8.57;2.97;;;-4.80;99.90;;;;;;5072594;28;20397;-79
2022/01/21 04:58:15;;;;;;;7.15;3.85;;;-4.80;99.90;;;;;;5055656;28;20088;-79
2022/01/21 05:00:41;;;;;;;8.55;3.15;;;-4.80;99.90;;;;;;5055976;28;20031;-79
2022/01/21 05:03:06;;;;;;;13.20;4.10;;;-4.80;99.90;;;;;;5073795;28;20044;-79
2022/01/21 05:05:32;;;;;;;5.88;3.50;;;-4.80;99.90;;;;;;5073925;28;20025;-78
2022/01/21 05:08:01;;;;;;;7.47;3.90;;;-4.70;99.90;;;;;;5055266;28;20083;-79
2022/01/21 05:10:28;;;;;;;50.05;18.65;;;-4.70;99.90;;;;;;5036662;28;20084;-79
2022/01/21 05:12:54;;;;;;;18.38;7.78;;;-4.70;99.90;;;;;;5053599;28;20037;-79
2022/01/21 05:15:42;;;;;;;5.03;3.05;;;-4.70;99.90;;;;;;5053826;28;20445;-79
2022/01/21 05:18:08;;;;;;;17.23;7.28;;;-4.70;99.90;;;;;;5035253;28;20646;-79
2022/01/21 05:20:34;;;;;;;12.45;3.47;;;-4.70;99.90;;;;;;5052270;28;20108;-79
2022/01/21 05:22:59;;;;;;;39.15;13.75;;;-4.70;99.90;;;;;;5052252;28;20076;-79
2022/01/21 05:25:25;;;;;;;16.42;5.78;;;-4.60;99.90;;;;;;5053088;28;20025;-78
2022/01/21 05:27:53;;;;;;;7.60;3.20;;;-4.60;99.90;;;;;;5053067;28;20544;-79
2022/01/21 05:30:19;;;;;;;7.95;3.25;;;-4.70;99.90;;;;;;5053095;28;20040;-79
2022/01/21 05:32:45;;;;;;;6.50;3.08;;;-4.70;99.90;;;;;;5053228;28;20037;-79
2022/01/21 05:35:12;;;;;;;13.07;4.18;;;-4.60;99.90;;;;;;5035389;28;20501;-79
2022/01/21 05:37:37;;;;;;;14.00;4.78;;;-4.60;99.90;;;;;;5035244;28;20493;-79
2022/01/21 05:40:05;;;;;;;21.23;8.43;;;-4.60;99.90;;;;;;5052457;28;20029;-79
2022/01/21 05:42:34;;;;;;;62.58;18.55;;;-4.60;99.90;;;;;;5051321;28;20098;-79
2022/01/21 05:47:26;;;;;;;22.15;6.53;;;-4.60;99.90;;;;;;5052962;28;20113;-79
2022/01/21 05:49:52;;;;;;;8.85;3.92;;;-4.60;99.90;;;;;;5052552;28;20172;-80
2022/01/21 05:52:19;;;;;;;4.60;3.63;;;-4.60;99.90;;;;;;5052783;28;20033;-79
2022/01/21 05:54:46;;;;;;;17.02;6.60;;;-4.60;99.90;;;;;;5034952;28;20099;-79
2022/01/21 05:57:16;;;;;;;7.32;3.45;;;-4.60;99.90;;;;;;5052893;28;20118;-79
2022/01/21 05:59:42;;;;;;;10.10;3.78;;;-4.60;99.90;;;;;;5052241;28;20067;-79
2022/01/21 06:02:08;;;;;;;13.13;4.13;;;-4.60;99.90;;;;;;5051666;28;20064;-78
2022/01/21 06:04:36;;;;;;;6.50;4.07;;;-4.60;99.90;;;;;;5032899;28;20036;-79
2022/01/21 06:07:04;;;;;;;28.40;11.05;;;-4.60;99.90;;;;;;5050474;28;20099;-79
2022/01/21 06:09:30;;;;;;;104.93;38.45;;;-4.60;99.90;;;;;;5051100;28;20041;-79
2022/01/21 06:11:55;;;;;;;74.57;24.80;;;-4.50;99.90;;;;;;5032986;28;20033;-78
2022/01/21 06:14:21;;;;;;;22.77;9.23;;;-4.50;99.90;;;;;;5051667;28;20029;-79
2022/01/21 06:16:47;;;;;;;38.25;13.40;;;-4.50;99.90;;;;;;5033737;28;20083;-79
2022/01/21 06:19:13;;;;;;;13.63;5.22;;;-4.50;99.90;;;;;;5032418;28;20029;-79
2022/01/21 06:21:39;;;;;;;35.78;11.70;;;-4.50;99.90;;;;;;5032502;28;20040;-78
2022/01/21 06:24:04;;;;;;;43.17;16.80;;;-4.50;99.90;;;;;;5041650;28;20522;-79
2022/01/21 06:26:30;;;;;;;97.03;29.90;;;-4.50;99.90;;;;;;5054034;28;20040;-78
2022/01/21 06:28:55;;;;;;;60.92;17.80;;;-4.50;99.90;;;;;;5060884;28;20039;-78
2022/01/21 06:31:21;;;;;;;412.88;114.78;;;-4.50;99.90;;;;;;5071446;28;20111;-78
2022/01/21 06:33:47;;;;;;;21.38;7.70;;;-4.50;99.90;;;;;;5057507;28;20040;-78
2022/01/21 06:36:12;;;;;;;362.67;97.65;;;-4.50;99.90;;;;;;5052508;28;20029;-78
2022/01/21 06:38:38;;;;;;;265.55;61.53;;;-4.50;99.90;;;;;;5031492;28;20621;-79
2022/01/21 06:41:04;;;;;;;20.60;5.57;;;-4.40;99.90;;;;;;5063725;28;20576;-78
2022/01/21 06:43:29;;;;;;;15.38;6.78;;;-4.50;99.90;;;;;;5035292;28;20098;-78
2022/01/21 06:45:55;;;;;;;51.60;14.10;;;-4.50;99.90;;;;;;5056011;28;20375;-78
2022/01/21 06:48:21;;;;;;;64.32;16.00;;;-4.50;99.90;;;;;;5034746;28;20479;-79
2022/01/21 06:50:46;;;;;;;43.65;14.65;;;-4.50;99.90;;;;;;5051443;28;20029;-79
2022/01/21 06:53:12;;;;;;;72.32;16.40;;;-4.50;99.90;;;;;;5068676;28;20033;-80
2022/01/21 06:55:38;;;;;;;34.30;7.97;;;-4.50;99.90;;;;;;5068195;28;20048;-78
2022/01/21 06:58:05;;;;;;;35.50;12.70;;;-4.50;99.90;;;;;;5050456;28;20387;-79
2022/01/21 07:00:31;;;;;;;51.50;14.93;;;-4.50;99.90;;;;;;5052668;28;20287;-78
2022/01/21 07:02:57;;;;;;;19.65;7.63;;;-4.50;99.90;;;;;;5051913;28;20744;-78
2022/01/21 07:05:25;;;;;;;177.07;42.33;;;-4.50;99.90;;;;;;5069249;28;20032;-79
2022/01/21 07:07:51;;;;;;;45.85;12.38;;;-4.50;99.90;;;;;;5041558;28;20047;-79
2022/01/21 07:10:17;;;;;;;45.25;15.38;;;-4.40;99.90;;;;;;5066501;28;20033;-78
2022/01/21 07:12:44;;;;;;;68.72;19.40;;;-4.40;99.90;;;;;;5069208;28;20095;-79
2022/01/21 07:15:15;;;;;;;155.48;48.65;;;-4.40;99.90;;;;;;5047326;28;20033;-79
2022/01/21 07:17:42;;;;;;;35.28;11.75;;;-4.40;99.90;;;;;;5035085;28;20079;-79
2022/01/21 07:20:08;;;;;;;25.45;8.43;;;-4.30;99.90;;;;;;5035836;28;20057;-79
2022/01/21 07:22:33;;;;;;;23.83;8.10;;;-4.30;99.90;;;;;;5055573;28;20072;-79
2022/01/21 07:24:59;;;;;;;52.25;14.73;;;-4.30;99.90;;;;;;5054906;28;20041;-80
2022/01/21 07:27:25;;;;;;;25.60;8.15;;;-4.30;99.90;;;;;;5035599;28;20088;-79
2022/01/21 07:29:50;;;;;;;12.63;5.40;;;-4.30;99.90;;;;;;5053172;28;20033;-78
2022/01/21 07:32:16;;;;;;;21.35;7.10;;;-4.30;99.90;;;;;;5053465;28;20045;-79
2022/01/21 07:34:42;;;;;;;37.45;10.77;;;-4.30;99.90;;;;;;5053472;28;20474;-78
2022/01/21 07:37:07;;;;;;;18.42;6.15;;;-4.20;99.90;;;;;;5061265;28;20044;-78
2022/01/21 07:39:33;;;;;;;31.27;9.07;;;-4.20;99.90;;;;;;5044144;28;20028;-78
2022/01/21 07:41:59;;;;;;;18.90;5.90;;;-4.10;99.90;;;;;;5047160;28;20036;-78
2022/01/21 07:44:25;;;;;;;20.55;8.57;;;-4.10;99.90;;;;;;5042703;28;20028;-78
2022/01/21 07:46:51;;;;;;;13.13;6.72;;;-4.10;99.90;;;;;;5055666;28;20130;-79
2022/01/21 07:49:16;;;;;;;13.15;7.32;;;-4.00;99.90;;;;;;5064544;28;20044;-79
2022/01/21 07:51:42;;;;;;;14.32;5.80;;;-4.10;99.90;;;;;;5067701;28;20051;-79
2022/01/21 07:54:09;;;;;;;11.27;4.13;;;-4.10;99.90;;;;;;5069488;28;20163;-78
2022/01/21 07:56:35;;;;;;;8.70;5.35;;;-4.00;99.90;;;;;;5064724;28;20042;-78
2022/01/21 07:59:07;;;;;;;20.40;6.53;;;-4.00;99.90;;;;;;5068889;28;20494;-79
2022/01/21 08:01:32;;;;;;;11.32;4.68;;;-3.90;99.90;;;;;;5070061;28;20386;-78
2022/01/21 08:03:58;;;;;;;11.70;5.03;;;-3.90;99.90;;;;;;5059579;28;20047;-78
2022/01/21 08:06:24;;;;;;;8.48;6.13;;;-3.90;99.90;;;;;;5067674;28;20418;-78
2022/01/21 08:08:50;;;;;;;38.00;11.00;;;-3.80;99.90;;;;;;5034864;28;20044;-78
2022/01/21 08:11:16;;;;;;;10.35;5.82;;;-3.80;99.90;;;;;;5069828;28;20036;-78
2022/01/21 08:13:42;;;;;;;17.00;6.03;;;-3.80;99.90;;;;;;5050919;28;20394;-78
2022/01/21 08:16:07;;;;;;;28.90;10.75;;;-3.70;99.90;;;;;;5050984;28;20037;-79
2022/01/21 08:18:35;;;;;;;15.93;6.28;;;-3.70;99.90;;;;;;5051121;28;20036;-78
2022/01/21 08:21:00;;;;;;;15.73;6.85;;;-3.70;99.90;;;;;;5067415;28;20083;-79
2022/01/21 08:23:26;;;;;;;20.40;9.27;;;-3.60;99.90;;;;;;5051324;28;20045;-79
2022/01/21 08:25:52;;;;;;;14.85;7.65;;;-3.70;99.90;;;;;;5049525;28;20047;-78
2022/01/21 08:28:17;;;;;;;30.33;10.77;;;-3.70;99.90;;;;;;5050922;28;20482;-78
2022/01/21 08:30:43;;;;;;;44.60;14.70;;;-3.60;99.90;;;;;;5066735;28;20260;-78
2022/01/21 08:33:12;;;;;;;28.88;11.90;;;-3.60;99.90;;;;;;5068646;28;20430;-78
2022/01/21 08:35:43;;;;;;;12.80;4.97;;;-3.60;99.90;;;;;;5068334;28;20482;-78
2022/01/21 08:38:09;;;;;;;42.35;17.10;;;-3.70;99.90;;;;;;5069537;28;20036;-78
2022/01/21 08:40:35;;;;;;;14.13;6.50;;;-3.60;99.90;;;;;;5071286;28;20036;-77
2022/01/21 08:43:00;;;;;;;20.30;8.35;;;-3.50;99.90;;;;;;5070951;28;20087;-78
2022/01/21 08:45:29;;;;;;;37.88;14.52;;;-3.50;99.90;;;;;;5053130;28;20036;-78
2022/01/21 08:47:54;;;;;;;51.42;21.50;;;-3.40;99.90;;;;;;5052142;28;20036;-77
2022/01/21 08:50:21;;;;;;;44.92;17.30;;;-3.40;99.90;;;;;;5049181;28;20035;-77
2022/01/21 08:52:48;;;;;;;24.73;11.07;;;-3.30;99.90;;;;;;5052105;28;20037;-78
2022/01/21 08:55:18;;;;;;;40.67;18.02;;;-3.30;99.90;;;;;;5053049;28;20115;-78
2022/01/21 08:57:47;;;;;;;33.13;11.45;;;-3.30;99.90;;;;;;5071122;28;20072;-78
2022/01/21 09:00:21;;;;;;;24.23;9.30;;;-3.30;99.90;;;;;;5048807;28;20029;-78
2022/01/21 09:02:47;;;;;;;27.20;9.85;;;-3.30;99.90;;;;;;5069595;28;20393;-78
2022/01/21 09:05:13;;;;;;;13.35;6.95;;;-3.30;99.90;;;;;;5066897;28;20043;-78
2022/01/21 09:07:39;;;;;;;14.35;7.65;;;-3.30;99.90;;;;;;5051380;28;20032;-78
2022/01/21 09:10:06;;;;;;;16.10;8.10;;;-3.30;99.90;;;;;;5052649;28;20029;-78
2022/01/21 09:12:32;;;;;;;17.13;7.60;;;-3.20;99.90;;;;;;5065597;28;20043;-78
2022/01/21 09:14:58;;;;;;;15.10;5.28;;;-3.20;99.90;;;;;;5070977;28;20044;-78
2022/01/21 09:17:24;;;;;;;15.15;6.70;;;-3.20;99.90;;;;;;5068229;28;20036;-78
2022/01/21 09:19:49;;;;;;;17.48;8.75;;;-3.10;99.90;;;;;;5070396;28;20454;-78
2022/01/21 09:22:15;;;;;;;14.20;7.18;;;-3.10;99.90;;;;;;5051868;28;20033;-78
2022/01/21 09:24:41;;;;;;;17.67;7.25;;;-3.00;99.90;;;;;;5067593;28;20095;-78
2022/01/21 09:27:07;;;;;;;12.23;5.57;;;-2.90;99.90;;;;;;5066403;28;20040;-78
2022/01/21 09:29:34;;;;;;;16.83;6.88;;;-2.90;99.90;;;;;;5067243;28;20436;-78
2022/01/21 09:32:00;;;;;;;104.28;41.33;;;-2.90;99.90;;;;;;5068010;28;20036;-78
2022/01/21 09:34:27;;;;;;;51.80;26.17;;;-2.90;99.90;;;;;;5068256;28;20056;-78
2022/01/21 09:36:54;;;;;;;51.58;25.52;;;-2.80;99.90;;;;;;5064863;28;20024;-78
2022/01/21 09:39:20;;;;;;;35.67;18.13;;;-2.70;99.90;;;;;;5066629;28;20033;-78
2022/01/21 09:41:46;;;;;;;71.78;30.70;;;-2.80;99.90;;;;;;5067736;28;20032;-78
2022/01/21 09:44:14;;;;;;;41.17;16.30;;;-2.70;99.90;;;;;;5049666;28;20040;-78
2022/01/21 09:46:44;;;;;;;78.85;35.17;;;-2.70;99.90;;;;;;5049687;28;20036;-78
2022/01/21 09:51:57;;;;;;;63.85;27.48;;;-2.70;99.90;;;;;;5064704;28;20032;-78
2022/01/21 09:54:24;;;;;;;69.05;28.00;;;-2.70;99.90;;;;;;5067334;28;20032;-78
2022/01/21 09:56:52;;;;;;;66.28;28.45;;;-2.70;99.90;;;;;;5045922;28;20551;-78
2022/01/21 09:59:20;;;;;;;43.15;19.02;;;-2.60;99.90;;;;;;5066944;28;20038;-77
2022/01/21 10:01:51;;;;;;;102.00;44.58;;;-2.60;99.90;;;;;;5066781;28;20032;-77
2022/01/21 10:04:19;;;;;;;23.85;11.32;;;-2.50;99.90;;;;;;5048549;28;20387;-77
2022/01/21 10:06:46;;;;;;;37.58;15.05;;;-2.50;99.90;;;;;;5057336;28;20024;-77
2022/01/21 10:09:15;;;;;;;13.95;7.75;;;-2.50;99.90;;;;;;5066859;28;20032;-77
2022/01/21 10:11:46;;;;;;;16.33;7.95;;;-2.50;99.90;;;;;;5057941;28;20048;-77
2022/01/21 10:14:12;;;;;;;10.43;4.90;;;-2.30;99.80;;;;;;5066476;28;20098;-77
2022/01/21 10:16:37;;;;;;;14.23;7.97;;;-2.40;98.10;;;;;;5066177;28;20478;-77
2022/01/21 10:19:06;;;;;;;24.25;10.80;;;-2.30;97.40;;;;;;5049301;28;20131;-77
2022/01/21 10:21:34;;;;;;;8.55;4.65;;;-2.20;98.20;;;;;;5048419;28;20025;-77
2022/01/21 10:24:06;;;;;;;6.30;3.80;;;-2.20;96.30;;;;;;5066898;28;20114;-77
2022/01/21 10:26:32;;;;;;;6.38;4.38;;;-2.20;92.60;;;;;;5048195;28;20036;-77
2022/01/21 10:28:58;;;;;;;9.82;3.83;;;-2.20;93.90;;;;;;5048137;28;20778;-77
2022/01/21 10:31:24;;;;;;;9.40;4.55;;;-2.10;92.40;;;;;;5067233;28;20032;-76
2022/01/21 10:33:56;;;;;;;8.52;3.90;;;-2.10;90.20;;;;;;5043968;28;20044;-77
2022/01/21 10:36:29;;;;;;;6.47;4.20;;;-2.00;89.20;;;;;;5066116;28;20028;-77
2022/01/21 10:39:27;;;;;;;6.60;3.53;;;-1.90;90.10;;;;;;5049110;28;20028;-78
2022/01/21 10:41:50;;;;;;;9.48;4.13;;;-1.90;87.60;;;;;;5066723;28;20033;-78
2022/01/21 10:44:19;;;;;;;8.82;6.03;;;-1.90;88.10;;;;;;5052066;28;20435;-76
2022/01/21 10:47:02;;;;;;;9.43;4.72;;;-1.90;87.50;;;;;;5052805;28;20037;-76
2022/01/21 10:49:27;;;;;;;15.60;9.63;;;-1.90;87.90;;;;;;5052504;28;20433;-77
2022/01/21 10:51:55;;;;;;;9.35;3.88;;;-2.00;88.70;;;;;;5073240;28;20036;-77
2022/01/21 10:54:29;;;;;;;46.83;15.10;;;-2.00;88.40;;;;;;5056930;28;20028;-77
2022/01/21 10:57:02;;;;;;;7.75;5.45;;;-2.00;89.70;;;;;;5072362;28;20091;-77
2022/01/21 10:59:44;;;;;;;9.52;4.63;;;-2.00;90.00;;;;;;5061507;28;20055;-76
2022/01/21 11:02:12;;;;;;;10.85;5.45;;;-2.10;89.20;;;;;;5075939;28;20033;-77
2022/01/21 11:04:44;;;;;;;8.70;5.47;;;-2.10;90.00;;;;;;5057485;28;20458;-77
2022/01/21 11:07:13;;;;;;;15.85;7.13;;;-2.10;90.70;;;;;;5044797;28;20369;-77
2022/01/21 11:09:38;;;;;;;10.90;4.15;;;-2.10;91.60;;;;;;5073035;28;20075;-77
2022/01/21 11:12:15;;;;;;;29.73;9.40;;;-2.20;92.80;;;;;;5055268;28;20122;-77
2022/01/21 11:14:58;;;;;;;35.92;11.90;;;-2.10;95.60;;;;;;5072756;28;20040;-80
2022/01/21 11:17:24;;;;;;;;;;;-2.20;99.40;;;;;;5054540;28;20532;-77
2022/01/21 11:20:16;;;;;;;8.18;4.43;;;-2.20;99.90;;;;;;5073424;28;19908;-77
2022/01/21 11:23:12;;;;;;;29.42;10.07;;;-2.30;98.30;;;;;;5055058;28;20064;-77
2022/01/21 11:25:46;;;;;;;23.40;8.35;;;-2.30;99.90;;;;;;5051717;28;20058;-76
2022/01/21 11:28:23;;;;;;;19.77;6.70;;;-2.30;99.90;;;;;;5055154;28;20020;-77
2022/01/21 11:30:51;;;;;;;34.58;13.85;;;-2.30;99.90;;;;;;5055201;28;20028;-77
2022/01/21 11:33:18;;;;;;;17.27;7.50;;;-2.40;99.90;;;;;;5075746;28;20035;-77
2022/01/21 11:35:46;;;;;;;10.30;3.97;;;-2.30;99.90;;;;;;5076523;28;20024;-77
2022/01/21 11:38:12;;;;;;;11.10;4.05;;;-2.40;99.90;;;;;;5066564;28;20021;-77
2022/01/21 11:40:40;;;;;;;13.90;5.15;;;-2.40;99.90;;;;;;5072235;28;20282;-77
2022/01/21 11:43:07;;;;;;;8.35;4.03;;;-2.50;99.90;;;;;;5056198;28;20064;-77
2022/01/21 11:50:44;;;;;;;8.63;4.10;;;-2.40;99.90;;;;;;5072983;28;20041;-77
2022/01/21 11:53:10;;;;;;;13.82;4.88;;;-2.40;99.90;;;;;;5052539;28;20478;-77
2022/01/21 11:55:39;;;;;;;9.43;4.18;;;-2.40;99.90;;;;;;5073888;28;20063;-77
2022/01/21 11:58:19;;;;;;;14.10;5.47;;;-2.40;99.90;;;;;;5072127;28;20048;-77
2022/01/21 12:00:47;;;;;;;14.18;5.43;;;-2.40;99.90;;;;;;5061402;28;20033;-77
2022/01/21 12:03:19;;;;;;;10.18;4.68;;;-2.30;99.90;;;;;;5060450;28;20124;-77
2022/01/21 12:05:45;;;;;;;10.48;5.88;;;-2.20;99.90;;;;;;5049986;28;20025;-78
2022/01/21 12:08:11;;;;;;;11.48;4.75;;;-2.20;99.90;;;;;;5051909;28;20119;-77
2022/01/21 12:10:42;;;;;;;20.33;8.85;;;-2.20;99.90;;;;;;5051439;28;20032;-78
2022/01/21 12:13:11;;;;;;;17.25;7.70;;;-2.30;99.90;;;;;;5068705;28;20511;-77
2022/01/21 12:16:16;;;;;;;18.65;7.75;;;-2.10;99.90;;;;;;5049353;28;20046;-77
2022/01/21 12:21:38;;;;;;;6.90;3.97;;;-2.10;88.10;;;;;;5067427;28;20036;-77
2022/01/21 12:24:04;;;;;;;10.70;4.15;;;-2.10;83.70;;;;;;5059693;28;20111;-77
2022/01/21 12:26:31;;;;;;;12.43;5.50;;;-2.00;85.10;;;;;;5047560;28;20519;-77
2022/01/21 12:28:57;;;;;;;11.25;4.97;;;-2.00;85.80;;;;;;5058060;28;20033;-77
2022/01/21 12:31:56;;;;;;;16.40;5.82;;;-2.00;84.10;;;;;;5050468;28;20025;-77
2022/01/21 12:34:22;;;;;;;20.75;9.20;;;-2.00;86.10;;;;;;5052772;28;20049;-77
2022/01/21 12:36:48;;;;;;;22.08;8.23;;;-1.80;87.30;;;;;;5048333;28;20032;-78
2022/01/21 12:39:36;;;;;;;13.23;6.03;;;-1.80;86.40;;;;;;5066056;28;20090;-77
2022/01/21 12:42:23;;;;;;;7.22;3.75;;;-1.90;81.20;;;;;;5043304;28;20037;-77
2022/01/21 12:44:57;;;;;;;12.70;6.53;;;-2.00;79.40;;;;;;5050532;28;20503;-77
2022/01/21 12:47:32;;;;;;;17.17;7.22;;;-1.90;78.80;;;;;;5068790;28;20087;-77
2022/01/21 12:50:04;;;;;;;10.20;4.00;;;-2.00;78.10;;;;;;5063942;28;20090;-77
2022/01/21 12:55:58;;;;;;;5.47;3.72;;;-1.90;80.00;;;;;;5067944;28;20409;-77
2022/01/21 12:58:41;;;;;;;8.75;4.82;;;-2.10;77.70;;;;;;5040278;28;20643;-77
2022/01/21 13:01:08;;;;;;;;;;;-2.20;80.90;;;;;;5048795;28;20103;-77
2022/01/21 13:04:18;;;;;;;13.45;4.53;;;-2.30;82.80;;;;;;5047846;28;19923;-77
2022/01/21 13:06:44;;;;;;;68.80;31.17;;;-2.10;84.40;;;;;;5054809;28;20040;-77
2022/01/21 13:09:12;;;;;;;136.25;51.92;;;-2.00;83.30;;;;;;5048670;28;20036;-77
2022/01/21 13:11:42;;;;;;;130.40;56.10;;;-2.10;81.70;;;;;;5049240;28;20035;-77
2022/01/21 13:17:00;;;;;;;23.77;12.90;;;-2.00;84.30;;;;;;5063790;28;20069;-77
2022/01/21 13:19:27;;;;;;;19.33;11.65;;;-2.20;90.10;;;;;;5066532;28;20029;-77
2022/01/21 13:21:52;;;;;;;42.67;24.58;;;-2.30;98.30;;;;;;5048653;28;20494;-77
2022/01/21 13:24:27;;;;;;;15.85;7.35;;;-2.50;99.90;;;;;;5047352;28;20064;-77
2022/01/21 13:26:53;;;;;;;10.55;4.38;;;-2.70;99.90;;;;;;5048947;28;20033;-77
2022/01/21 13:29:31;;;;;;;11.88;7.38;;;-2.70;99.90;;;;;;5065582;28;20056;-77
2022/01/21 13:32:00;;;;;;;9.55;7.20;;;-2.80;99.90;;;;;;5047361;28;20041;-77
2022/01/21 13:34:30;;;;;;;7.32;4.35;;;-2.80;99.90;;;;;;5066092;28;20033;-77
2022/01/21 13:37:07;;;;;;;10.48;4.72;;;-3.00;99.90;;;;;;5066672;28;20028;-77
2022/01/21 13:39:42;;;;;;;46.35;19.90;;;-3.00;99.90;;;;;;5048620;28;20052;-77
2022/01/21 13:42:13;;;;;;;30.60;15.85;;;-2.90;99.90;;;;;;5048816;28;20028;-77
2022/01/21 13:44:51;;;;;;;12.85;8.77;;;-2.80;99.90;;;;;;5063872;28;20063;-77